Terminal Aerodrome Forecast
Issued by NWS

Home | Current Version | Previous Version | Text Only | Print | Product List | Glossary On
Versions: 1 2 3 4 5 6 7 8 9 10 11 12 13 14 15
773
FTUS41 KBTV 251731
TAFMPV
TAF
KMPV 251731Z 2518/2618 18010G18KT P6SM VCSH SCT035 BKN060
      TEMPO 2518/2520 5SM -SHRA BR SCT025 OVC040
     FM252100 19005KT P6SM SCT025 BKN040
     FM260500 00000KT 4SM BR BKN015 OVC035
     FM261300 VRB03KT P6SM BKN025 OVC040
     FM261500 29004KT P6SM SCT050=

USA.gov is the U.S. government's official web portal to all federal, state and local government web resources and services.